Time;durP1;ratioP1;P1;durP2;ratioP2;P2;SDS_P1;SDS_P2;PMS_P1;PMS_P2;Temp;Humidity;BMP_temperature;BMP_pressure;BME280_temperature;BME280_humidity;BME280_pressure;Samples;Min_cycle;Max_cycle;Signal;HPM_P1;HPM_P2
2024/03/03 00:01:50;;;;;;;34.20;19.10;;;;;;;2.37;72.74;99984.45;108619;1256;60006;-78
2024/03/03 00:04:18;;;;;;;31.10;18.40;;;;;;;2.30;72.78;99981.81;108203;1254;72829;-80
2024/03/03 00:06:45;;;;;;;33.80;19.50;;;;;;;2.33;72.78;99980.20;107516;1253;69500;-78
2024/03/03 00:09:13;;;;;;;31.10;16.80;;;;;;;2.39;72.76;99982.40;109229;1253;73181;-77
2024/03/03 00:11:41;;;;;;;34.40;16.90;;;;;;;2.34;73.05;99981.15;108719;1258;60394;-79
2024/03/03 00:14:09;;;;;;;28.10;18.40;;;;;;;2.27;73.27;99976.80;108360;1253;60253;-78
2024/03/03 00:16:42;;;;;;;25.90;16.30;;;;;;;2.21;73.36;99978.65;108330;1253;72632;-78
2024/03/03 00:19:09;;;;;;;27.10;15.70;;;;;;;2.14;73.58;99975.95;108693;1254;69001;-77
2024/03/03 00:21:37;;;;;;;27.80;15.90;;;;;;;2.11;73.70;99972.88;109240;1253;71438;-76
2024/03/03 00:24:05;;;;;;;29.80;16.50;;;;;;;2.07;73.49;99970.34;109058;1259;58986;-76
2024/03/03 00:26:33;;;;;;;27.50;14.90;;;;;;;2.02;73.48;99971.02;109236;1253;59059;-78
2024/03/03 00:29:01;;;;;;;23.80;14.00;;;;;;;2.07;73.32;99964.00;109193;1253;72520;-78
2024/03/03 00:31:28;;;;;;;31.40;15.90;;;;;;;2.17;73.43;99970.67;109299;1253;69190;-78
2024/03/03 00:33:56;;;;;;;30.50;18.80;;;;;;;2.19;73.53;99968.12;109137;1253;73785;-78
2024/03/03 00:36:23;;;;;;;32.50;17.90;;;;;;;2.17;73.81;99969.48;108792;1253;58032;-79
2024/03/03 00:38:51;;;;;;;32.00;21.00;;;;;;;2.16;73.96;99966.05;108825;1258;58849;-79
2024/03/03 00:41:18;;;;;;;34.00;20.90;;;;;;;2.16;74.12;99972.30;107893;1256;72438;-80
2024/03/03 00:43:46;;;;;;;34.90;21.20;;;;;;;2.15;74.18;99966.96;107717;1254;71276;-78
2024/03/03 00:46:13;;;;;;;30.60;17.20;;;;;;;2.14;74.25;99967.92;108176;1254;71150;-80
2024/03/03 00:48:41;;;;;;;29.00;18.20;;;;;;;2.23;74.17;99968.90;109312;1253;59658;-79
2024/03/03 00:51:08;;;;;;;30.00;18.50;;;;;;;2.32;74.02;99965.29;109200;1253;58732;-75
2024/03/03 00:53:35;;;;;;;28.40;18.00;;;;;;;2.33;74.14;99967.77;106635;1256;72372;-79
2024/03/03 00:56:05;;;;;;;35.20;18.50;;;;;;;2.32;74.36;99969.09;106190;1259;70158;-76
2024/03/03 00:58:32;;;;;;;28.90;18.60;;;;;;;2.28;74.28;99963.15;106084;1253;72687;-79
2024/03/03 01:00:59;;;;;;;31.10;17.10;;;;;;;2.26;74.46;99962.00;106128;1254;60425;-79
2024/03/03 01:03:29;;;;;;;26.30;17.70;;;;;;;2.23;74.34;99963.95;106170;1254;60565;-79
2024/03/03 01:05:57;;;;;;;28.80;16.70;;;;;;;2.20;74.40;99962.95;105989;1259;74185;-80
2024/03/03 01:08:24;;;;;;;28.20;15.00;;;;;;;2.22;74.36;99961.05;105981;1257;68856;-78
2024/03/03 01:10:52;;;;;;;26.10;14.30;;;;;;;2.30;74.21;99959.66;105862;1253;71174;-78
2024/03/03 01:13:19;;;;;;;26.70;15.40;;;;;;;2.27;74.21;99961.11;105733;1259;60512;-78
2024/03/03 01:15:47;;;;;;;24.20;14.40;;;;;;;2.21;74.60;99967.13;105806;1253;60605;-79
2024/03/03 01:18:15;;;;;;;35.30;16.70;;;;;;;2.16;74.63;99966.23;105750;1254;72616;-80
2024/03/03 01:20:42;;;;;;;27.30;16.20;;;;;;;2.10;74.60;99963.52;105785;1258;68936;-80
2024/03/03 01:23:11;;;;;;;29.50;16.60;;;;;;;2.05;74.75;99967.02;105883;1254;72617;-79
2024/03/03 01:25:39;;;;;;;31.20;17.00;;;;;;;2.02;74.98;99966.00;105832;1260;60527;-79
2024/03/03 01:28:07;;;;;;;31.10;16.00;;;;;;;2.07;74.73;99966.33;105936;1258;62045;-81
2024/03/03 01:30:35;;;;;;;32.00;15.90;;;;;;;2.12;74.54;99969.11;105932;1253;73887;-81
2024/03/03 01:33:03;;;;;;;31.90;18.30;;;;;;;2.11;74.73;99969.48;105650;1258;68968;-80
2024/03/03 01:35:30;;;;;;;30.60;18.10;;;;;;;2.09;74.96;99970.38;106158;1253;72659;-78
2024/03/03 01:37:58;;;;;;;36.00;19.50;;;;;;;2.08;75.19;99973.38;106010;1254;60490;-80
2024/03/03 01:40:25;;;;;;;28.10;18.30;;;;;;;2.08;75.22;99970.94;106665;1258;59254;-79
2024/03/03 01:42:56;;;;;;;29.70;19.00;;;;;;;2.09;75.49;99972.27;109048;1253;73759;-81
2024/03/03 01:45:24;;;;;;;28.10;17.90;;;;;;;2.13;75.29;99973.77;108608;1253;69142;-76
2024/03/03 01:47:52;;;;;;;39.50;20.10;;;;;;;2.14;75.31;99973.02;106808;1254;71449;-80
2024/03/03 01:50:20;;;;;;;32.60;17.60;;;;;;;2.22;75.15;99971.77;106538;1257;61047;-77
2024/03/03 01:52:48;;;;;;;32.20;17.10;;;;;;;2.33;74.83;99972.16;105872;1254;60989;-77
2024/03/03 01:55:21;;;;;;;29.80;20.00;;;;;;;2.38;74.93;99971.64;105556;1258;73969;-75
2024/03/03 01:57:50;;;;;;;32.30;18.70;;;;;;;2.39;74.94;99971.27;105809;1258;68706;-77
2024/03/03 02:00:17;;;;;;;34.70;20.00;;;;;;;2.39;75.08;99967.89;105701;1260;71420;-80
2024/03/03 02:02:48;;;;;;;30.30;19.90;;;;;;;2.39;75.00;99969.85;105845;1254;60388;-79
2024/03/03 02:05:16;;;;;;;28.60;17.70;;;;;;;2.37;74.93;99968.39;105959;1254;60558;-76
2024/03/03 02:07:43;;;;;;;32.80;18.80;;;;;;;2.37;75.06;99967.34;106109;1253;72795;-80
2024/03/03 02:10:11;;;;;;;31.90;19.00;;;;;;;2.45;74.83;99966.04;106136;1254;70626;-80
2024/03/03 02:12:40;;;;;;;30.70;19.10;;;;;;;2.55;74.66;99964.98;106285;1254;71058;-79
2024/03/03 02:15:08;;;;;;;28.40;18.60;;;;;;;2.55;74.51;99962.37;106045;1253;60518;-77
2024/03/03 02:17:36;;;;;;;27.90;18.40;;;;;;;2.52;74.61;99962.75;105712;1253;60450;-76
2024/03/03 02:20:04;;;;;;;34.60;21.50;;;;;;;2.51;74.49;99962.87;105811;1258;74164;-80
2024/03/03 02:22:32;;;;;;;35.90;20.50;;;;;;;2.48;74.60;99963.95;105941;1257;69070;-78
2024/03/03 02:25:00;;;;;;;37.10;22.90;;;;;;;2.44;74.75;99958.80;105901;1254;71517;-79
2024/03/03 02:27:27;;;;;;;27.90;18.80;;;;;;;2.41;74.64;99956.92;105853;1254;60623;-79
2024/03/03 02:29:55;;;;;;;32.30;17.50;;;;;;;2.46;74.57;99957.45;105899;1253;60651;-76
2024/03/03 02:32:22;;;;;;;29.20;17.20;;;;;;;2.53;74.46;99959.91;105921;1254;72346;-77
2024/03/03 02:34:50;;;;;;;27.00;16.60;;;;;;;2.53;74.46;99962.17;106116;1253;68722;-77
2024/03/03 02:37:17;;;;;;;34.80;16.80;;;;;;;2.51;74.50;99964.92;108612;1253;71084;-78
2024/03/03 02:39:45;;;;;;;33.40;19.40;;;;;;;2.49;74.71;99967.33;108899;1253;59200;-78
2024/03/03 02:42:12;;;;;;;31.10;19.30;;;;;;;2.49;74.73;99966.30;106293;1253;193923;-76
2024/03/03 02:47:00;;;;;;;31.90;21.10;;;;;;;2.47;74.56;99968.55;102883;1291;600436;-76
2024/03/03 02:49:28;;;;;;;34.90;18.60;;;;;;;2.39;74.51;99971.24;105067;1268;59740;-78
2024/03/03 02:51:55;;;;;;;27.40;17.70;;;;;;;2.42;74.46;99974.52;105445;1261;59353;-78
2024/03/03 02:54:23;;;;;;;27.00;16.30;;;;;;;2.49;74.53;99973.31;105248;1260;72256;-76
2024/03/03 02:56:51;;;;;;;27.60;17.00;;;;;;;2.49;74.77;99971.36;105429;1265;70332;-77
2024/03/03 02:59:19;;;;;;;33.80;17.40;;;;;;;2.49;74.91;99971.05;105383;1267;72506;-78
2024/03/03 03:01:46;;;;;;;29.20;16.90;;;;;;;2.50;74.96;99973.80;105324;1256;185775;-77
2024/03/03 03:04:14;;;;;;;34.00;18.20;;;;;;;2.50;74.84;99973.77;105348;1260;59179;-76
2024/03/03 03:06:42;;;;;;;31.00;19.50;;;;;;;2.49;74.78;99973.11;105884;1253;70662;-79
2024/03/03 03:09:10;;;;;;;32.70;19.30;;;;;;;2.48;74.84;99974.27;105969;1257;68706;-77
2024/03/03 03:11:37;;;;;;;30.50;16.00;;;;;;;2.45;74.73;99970.77;105981;1258;73222;-79
2024/03/03 03:14:05;;;;;;;29.00;15.20;;;;;;;2.49;74.47;99975.42;106517;1253;60927;-78
2024/03/03 03:16:32;;;;;;;23.90;14.80;;;;;;;2.54;74.35;99977.86;107765;1253;59720;-78
2024/03/03 03:19:00;;;;;;;31.40;16.80;;;;;;;2.52;74.45;99979.88;105864;1258;73019;-77
2024/03/03 03:21:27;;;;;;;30.60;16.40;;;;;;;2.52;74.98;99974.84;105542;1253;69736;-77
2024/03/03 03:23:55;;;;;;;27.70;15.80;;;;;;;2.54;74.92;99974.88;105621;1256;72555;-78
2024/03/03 03:26:22;;;;;;;26.70;16.20;;;;;;;2.50;74.79;99975.84;105931;1258;59839;-80
2024/03/03 03:28:50;;;;;;;27.60;16.00;;;;;;;2.48;74.76;99977.08;106254;1251;59664;-78
2024/03/03 03:31:17;;;;;;;32.70;16.10;;;;;;;2.47;74.93;99977.27;107833;1253;73063;-77
2024/03/03 03:33:45;;;;;;;25.70;14.40;;;;;;;2.48;74.93;99978.27;108017;1253;68890;-78
2024/03/03 03:36:12;;;;;;;29.90;14.80;;;;;;;2.58;74.95;99974.77;107029;1253;72804;-79
2024/03/03 03:38:40;;;;;;;32.10;16.60;;;;;;;2.70;74.66;99974.02;106172;1256;59740;-80
2024/03/03 03:41:07;;;;;;;30.60;16.40;;;;;;;2.70;74.34;99975.45;106282;1253;59740;-80
2024/03/03 03:43:35;;;;;;;29.90;14.90;;;;;;;2.63;74.25;99974.77;106008;1253;73011;-80
2024/03/03 03:46:02;;;;;;;27.40;15.60;;;;;;;2.60;74.71;99974.48;106310;1254;70009;-80
2024/03/03 03:48:29;;;;;;;27.10;16.00;;;;;;;2.59;74.94;99977.65;106020;1259;71409;-82
2024/03/03 03:50:57;;;;;;;29.60;15.60;;;;;;;2.57;74.75;99977.63;106613;1255;59657;-77
2024/03/03 03:53:25;;;;;;;31.70;16.60;;;;;;;2.56;74.85;99975.61;106254;1255;60271;-79
2024/03/03 03:55:52;;;;;;;25.40;15.80;;;;;;;2.57;74.84;99975.85;106230;1255;73050;-76
2024/03/03 03:58:20;;;;;;;24.90;15.40;;;;;;;2.67;74.62;99973.40;105938;1254;69984;-76
2024/03/03 04:00:47;;;;;;;23.80;15.10;;;;;;;2.78;74.61;99973.31;106292;1258;72676;-76
2024/03/03 04:03:15;;;;;;;27.20;15.10;;;;;;;2.80;74.48;99967.58;105985;1254;59653;-77
2024/03/03 04:05:42;;;;;;;31.20;15.30;;;;;;;2.77;74.47;99964.98;105918;1253;59689;-78
2024/03/03 04:08:09;;;;;;;25.00;15.50;;;;;;;2.75;74.70;99965.46;105850;1260;73268;-77
2024/03/03 04:10:37;;;;;;;27.70;15.50;;;;;;;2.72;74.64;99964.45;105879;1253;68423;-77
2024/03/03 04:13:04;;;;;;;30.10;16.40;;;;;;;2.71;74.70;99967.52;106327;1258;71495;-79
2024/03/03 04:15:32;;;;;;;28.60;17.40;;;;;;;2.69;74.47;99967.11;106234;1254;59727;-78
2024/03/03 04:17:59;;;;;;;28.20;15.20;;;;;;;2.76;74.32;99971.16;105981;1255;60402;-76
2024/03/03 04:20:27;;;;;;;26.00;15.20;;;;;;;2.82;73.99;99972.29;105961;1253;72926;-77
2024/03/03 04:22:54;;;;;;;26.00;15.20;;;;;;;2.79;74.06;99971.14;105769;1258;68719;-78
2024/03/03 04:25:21;;;;;;;26.30;17.50;;;;;;;2.75;74.36;99964.61;107168;1253;71196;-78
2024/03/03 04:27:49;;;;;;;28.70;16.90;;;;;;;2.73;74.40;99963.02;108863;1253;59545;-77
2024/03/03 04:30:17;;;;;;;29.40;18.70;;;;;;;2.70;74.32;99957.96;107522;1260;59239;-79
2024/03/03 04:32:44;;;;;;;35.70;20.70;;;;;;;2.68;74.51;99959.52;106119;1253;73068;-80
2024/03/03 04:35:12;;;;;;;35.20;19.20;;;;;;;2.66;74.46;99959.52;106147;1253;69937;-79
2024/03/03 04:37:39;;;;;;;25.40;15.40;;;;;;;2.73;74.35;99964.95;105805;1258;72979;-80
2024/03/03 04:40:08;;;;;;;29.10;17.00;;;;;;;2.82;74.03;99963.77;105984;1258;59666;-77
2024/03/03 04:42:35;;;;;;;29.70;16.40;;;;;;;2.81;74.08;99964.69;105892;1253;59815;-81
2024/03/03 04:45:04;;;;;;;28.90;16.60;;;;;;;2.80;74.31;99969.52;105968;1258;73088;-81
2024/03/03 04:47:31;;;;;;;27.10;16.60;;;;;;;2.79;74.09;99966.77;106510;1253;70275;-77
2024/03/03 04:49:59;;;;;;;28.80;16.80;;;;;;;2.77;74.00;99962.73;107676;1258;71892;-76
2024/03/03 04:52:27;;;;;;;30.60;18.00;;;;;;;2.75;74.05;99967.77;105830;1257;59720;-77
2024/03/03 04:54:54;;;;;;;29.60;15.80;;;;;;;2.72;74.17;99969.85;105889;1258;62185;-79
2024/03/03 04:57:21;;;;;;;25.20;13.60;;;;;;;2.71;74.16;99975.39;105752;1254;72117;-80
2024/03/03 04:59:49;;;;;;;29.00;13.50;;;;;;;2.75;73.80;99975.05;106126;1253;68940;-80
2024/03/03 05:02:18;;;;;;;21.90;12.20;;;;;;;2.81;73.38;99975.70;105998;1258;71414;-78
2024/03/03 05:04:45;;;;;;;25.80;14.20;;;;;;;2.77;73.34;99974.94;106182;1258;60178;-81
2024/03/03 05:07:13;;;;;;;17.50;11.00;;;;;;;2.71;73.60;99976.78;106059;1253;60493;-80
2024/03/03 05:09:40;;;;;;;17.50;11.00;;;;;;;2.67;73.33;99973.94;105942;1258;72937;-80
2024/03/03 05:12:08;;;;;;;20.40;10.40;;;;;;;2.63;73.19;99978.29;105836;1256;70114;-81
2024/03/03 05:14:35;;;;;;;19.00;10.70;;;;;;;2.61;73.04;99978.57;105863;1256;71349;-79
2024/03/03 05:17:03;;;;;;;17.40;10.80;;;;;;;2.61;72.85;99978.39;105909;1258;59962;-79
2024/03/03 05:19:30;;;;;;;17.50;10.30;;;;;;;2.61;72.51;99978.77;106500;1256;60133;-78
2024/03/03 05:21:58;;;;;;;21.50;10.30;;;;;;;2.57;72.09;99981.65;108073;1253;71782;-79
2024/03/03 05:24:26;;;;;;;17.30;9.20;;;;;;;2.53;71.98;99979.79;107895;1253;70189;-79
2024/03/03 05:26:53;;;;;;;16.80;8.60;;;;;;;2.61;71.87;99983.45;107854;1258;71417;-78
2024/03/03 05:29:21;;;;;;;16.20;9.20;;;;;;;2.74;71.47;99982.30;107510;1256;60317;-81
2024/03/03 05:31:48;;;;;;;16.10;8.70;;;;;;;2.79;71.40;99984.95;105871;1254;59650;-79
2024/03/03 05:34:16;;;;;;;17.70;9.00;;;;;;;2.81;71.35;99984.11;106201;1258;73056;-82
2024/03/03 05:36:43;;;;;;;12.20;8.30;;;;;;;2.81;71.03;99987.76;106185;1253;70120;-78
2024/03/03 05:39:11;;;;;;;13.80;9.00;;;;;;;2.83;70.86;99986.95;105701;1253;72751;-77
2024/03/03 05:41:39;;;;;;;13.40;9.30;;;;;;;2.84;70.44;99985.67;105727;1258;59624;-80
2024/03/03 05:44:09;;;;;;;13.20;7.50;;;;;;;2.83;70.13;99986.61;105768;1256;59673;-77
2024/03/03 05:46:37;;;;;;;12.80;7.70;;;;;;;2.81;70.13;99990.63;105808;1253;70933;-76
2024/03/03 05:49:05;;;;;;;13.80;8.30;;;;;;;2.78;69.85;99986.39;105816;1258;69171;-79
2024/03/03 05:51:32;;;;;;;13.70;6.90;;;;;;;2.77;69.60;99986.13;105587;1260;72065;-79
2024/03/03 05:54:01;;;;;;;11.40;7.70;;;;;;;2.76;69.24;99989.72;105688;1255;59698;-79
2024/03/03 05:56:29;;;;;;;11.60;7.90;;;;;;;2.74;68.99;99991.55;105721;1253;60155;-77
2024/03/03 05:58:56;;;;;;;10.80;6.90;;;;;;;2.73;68.87;99988.36;105739;1258;73027;-79
2024/03/03 06:01:23;;;;;;;18.10;8.00;;;;;;;2.74;68.85;99988.43;105741;1253;70404;-77
2024/03/03 06:03:51;;;;;;;14.40;7.80;;;;;;;2.85;68.65;99990.48;105844;1255;72774;-74
2024/03/03 06:06:18;;;;;;;10.50;6.70;;;;;;;2.96;68.40;99989.35;105509;1259;59944;-74
2024/03/03 06:08:50;;;;;;;12.60;6.50;;;;;;;2.97;67.83;99989.92;105697;1258;59939;-74
2024/03/03 06:11:20;;;;;;;11.30;6.10;;;;;;;2.94;67.64;99989.92;105423;1258;73068;-75
2024/03/03 06:13:48;;;;;;;13.40;6.80;;;;;;;2.94;67.41;99992.94;105808;1253;70244;-74
2024/03/03 06:16:15;;;;;;;10.70;5.90;;;;;;;2.91;66.98;99988.94;107354;1254;71072;-75
2024/03/03 06:18:43;;;;;;;9.90;6.20;;;;;;;2.88;66.89;99992.02;107717;1253;59311;-78
2024/03/03 06:21:11;;;;;;;14.20;6.90;;;;;;;2.87;66.91;99992.07;107079;1253;59533;-78
2024/03/03 06:23:38;;;;;;;12.20;5.90;;;;;;;2.88;66.56;99988.14;107460;1258;71772;-77
2024/03/03 06:26:06;;;;;;;11.10;7.10;;;;;;;2.90;66.72;99990.59;105791;1258;69485;-78
2024/03/03 06:28:33;;;;;;;8.80;6.40;;;;;;;2.93;66.69;99991.10;105623;1259;70996;-81
2024/03/03 06:31:01;;;;;;;9.10;6.30;;;;;;;2.94;66.38;99992.61;105647;1256;59758;-81
2024/03/03 06:33:29;;;;;;;10.20;6.50;;;;;;;2.95;66.42;99994.45;105703;1258;60458;-79
2024/03/03 06:35:56;;;;;;;12.20;6.40;;;;;;;2.97;66.30;99996.91;105743;1252;71709;-79
2024/03/03 06:38:24;;;;;;;9.70;6.50;;;;;;;3.01;66.10;99992.61;105805;1256;69665;-78
2024/03/03 06:40:51;;;;;;;8.00;5.60;;;;;;;3.04;65.76;99994.67;105835;1254;72646;-75
2024/03/03 06:43:20;;;;;;;8.90;5.90;;;;;;;3.05;65.44;99994.77;105465;1253;59631;-77
2024/03/03 06:45:48;;;;;;;10.10;5.50;;;;;;;3.05;65.40;99999.46;105603;1258;60897;-77
2024/03/03 06:48:15;;;;;;;7.80;5.30;;;;;;;3.05;65.37;99999.84;106829;1253;73258;-77
2024/03/03 06:50:43;;;;;;;8.30;5.90;;;;;;;3.08;65.17;99998.91;106227;1259;68698;-78
2024/03/03 06:53:10;;;;;;;10.10;6.00;;;;;;;3.13;65.14;99999.42;105546;1259;72996;-78
2024/03/03 06:55:38;;;;;;;7.60;5.40;;;;;;;3.19;65.08;99999.88;105687;1259;60806;-78
2024/03/03 06:58:05;;;;;;;7.50;4.80;;;;;;;3.26;64.86;99997.78;105816;1254;60330;-78
2024/03/03 07:00:34;;;;;;;7.80;6.00;;;;;;;3.32;64.49;99997.80;105877;1254;73812;-81
2024/03/03 07:05:35;;;;;;;;;;;;;;;3.47;64.31;99998.27;105926;1257;71415;-80
2024/03/03 07:08:03;;;;;;;5.80;5.10;;;;;;;3.50;63.95;99994.57;106325;1258;60530;-78
2024/03/03 07:10:34;;;;;;;9.90;5.60;;;;;;;3.50;63.97;99996.27;108195;1254;60382;-79
2024/03/03 07:13:02;;;;;;;10.70;5.90;;;;;;;3.54;63.77;99996.36;107191;1259;74223;-75
2024/03/03 07:15:30;;;;;;;6.70;5.10;;;;;;;3.55;63.26;99996.61;106288;1256;68865;-79
2024/03/03 07:17:59;;;;;;;8.00;5.50;;;;;;;3.56;63.41;100003.23;106399;1256;72956;-74
2024/03/03 07:20:27;;;;;;;8.80;5.00;;;;;;;3.57;63.07;100000.02;105686;1259;60538;-74
2024/03/03 07:22:54;;;;;;;9.00;5.40;;;;;;;3.58;62.93;100004.48;105698;1254;61027;-75
2024/03/03 07:25:22;;;;;;;6.30;4.90;;;;;;;3.64;63.09;100000.01;105322;1260;73890;-75
2024/03/03 07:27:49;;;;;;;8.40;5.00;;;;;;;3.69;62.73;100000.44;105460;1256;69948;-74
2024/03/03 07:30:17;;;;;;;9.80;5.70;;;;;;;3.74;62.64;100002.52;105474;1256;72482;-73
2024/03/03 07:32:49;;;;;;;7.60;4.80;;;;;;;3.82;62.45;99998.13;105470;1253;60537;-75
2024/03/03 07:35:16;;;;;;;8.00;4.90;;;;;;;3.87;61.84;99998.73;105665;1256;60512;-74
2024/03/03 07:37:44;;;;;;;5.60;4.50;;;;;;;3.90;61.52;100003.38;105433;1254;72938;-73
2024/03/03 07:40:11;;;;;;;12.80;7.60;;;;;;;3.92;61.39;99992.86;105364;1253;68726;-75
2024/03/03 07:42:39;;;;;;;6.90;4.50;;;;;;;3.96;61.29;99995.97;105649;1256;72729;-75
2024/03/03 07:45:09;;;;;;;8.00;5.00;;;;;;;3.97;61.12;99995.70;105301;1256;60568;-73
2024/03/03 07:47:37;;;;;;;9.70;4.80;;;;;;;3.97;61.28;99999.39;105438;1258;61101;-74
2024/03/03 07:50:06;;;;;;;7.30;4.50;;;;;;;3.95;60.90;99996.37;105469;1260;73931;-76
2024/03/03 07:52:33;;;;;;;10.90;4.40;;;;;;;3.94;60.97;99989.97;105366;1261;68918;-75
2024/03/03 07:55:01;;;;;;;7.50;4.70;;;;;;;4.00;61.20;99998.41;105527;1256;71474;-75
2024/03/03 07:57:28;;;;;;;10.60;5.30;;;;;;;4.08;61.20;99997.77;105526;1254;60518;-75
2024/03/03 07:59:56;;;;;;;8.30;5.60;;;;;;;4.18;60.79;99998.98;105583;1258;61014;-75
2024/03/03 08:02:23;;;;;;;9.10;5.40;;;;;;;4.30;60.84;99997.63;106081;1255;72762;-74
2024/03/03 08:04:53;;;;;;;8.60;5.00;;;;;;;4.48;60.59;99996.41;108297;1254;68483;-75
2024/03/03 08:07:21;;;;;;;7.20;4.90;;;;;;;4.64;60.31;99992.52;107730;1260;73652;-76
2024/03/03 08:09:48;;;;;;;7.70;4.90;;;;;;;4.79;60.03;99999.67;105581;1258;60362;-76
2024/03/03 08:12:16;;;;;;;11.30;5.60;;;;;;;4.93;59.69;99996.80;105523;1254;60544;-75
2024/03/03 08:14:43;;;;;;;7.10;4.50;;;;;;;5.06;59.21;99999.06;105870;1256;75995;-76
2024/03/03 08:17:11;;;;;;;9.00;5.50;;;;;;;5.16;58.80;100000.55;105624;1255;72639;-76
2024/03/03 08:19:38;;;;;;;10.30;5.30;;;;;;;5.22;58.49;99994.23;105658;1259;71434;-76
2024/03/03 08:22:06;;;;;;;11.40;4.90;;;;;;;5.28;58.30;99994.63;105628;1259;60548;-76
2024/03/03 08:24:33;;;;;;;9.50;5.20;;;;;;;5.35;58.23;99999.50;105527;1257;60038;-75
2024/03/03 08:27:01;;;;;;;8.70;5.00;;;;;;;5.43;57.93;100002.16;105742;1254;72351;-76
2024/03/03 08:29:28;;;;;;;7.80;5.00;;;;;;;5.50;57.83;100002.27;105710;1256;73790;-76
2024/03/03 08:31:55;;;;;;;6.50;4.60;;;;;;;5.60;57.61;100005.11;105761;1261;71397;-77
2024/03/03 08:34:23;;;;;;;9.10;5.10;;;;;;;5.70;57.23;100003.41;105831;1259;59199;-77
2024/03/03 08:36:51;;;;;;;11.20;5.80;;;;;;;5.81;56.82;100003.75;105779;1259;60647;-78
2024/03/03 08:39:19;;;;;;;8.10;5.20;;;;;;;5.87;56.71;100005.48;105717;1254;73829;-78
2024/03/03 08:41:47;;;;;;;7.10;4.90;;;;;;;5.95;56.54;100001.14;105693;1256;70263;-76
2024/03/03 08:44:14;;;;;;;7.20;5.00;;;;;;;6.06;56.33;100000.75;105717;1254;71482;-76
2024/03/03 08:46:42;;;;;;;7.70;4.40;;;;;;;6.12;55.56;100003.92;105909;1256;60475;-78
2024/03/03 08:49:10;;;;;;;6.50;4.00;;;;;;;6.13;55.15;100002.79;105560;1258;60504;-76
2024/03/03 08:51:40;;;;;;;11.10;4.70;;;;;;;6.11;55.01;100006.81;105904;1256;72614;-76
2024/03/03 08:54:07;;;;;;;7.30;4.00;;;;;;;6.09;54.70;100005.16;105656;1258;72149;-77
2024/03/03 08:56:35;;;;;;;10.60;4.40;;;;;;;6.09;54.74;100003.86;107078;1256;71083;-75
2024/03/03 08:59:03;;;;;;;8.70;4.30;;;;;;;6.11;54.59;100006.84;108882;1256;60005;-77
2024/03/03 09:01:30;;;;;;;7.20;4.40;;;;;;;6.14;54.79;100006.34;107341;1258;60349;-76
2024/03/03 09:03:58;;;;;;;6.80;4.00;;;;;;;6.21;54.66;100007.71;105818;1259;72625;-75
2024/03/03 09:06:26;;;;;;;8.10;4.90;;;;;;;6.32;54.66;100010.59;105550;1256;70308;-77
2024/03/03 09:08:53;;;;;;;8.30;5.40;;;;;;;6.43;54.05;100018.46;105735;1254;71087;-77
2024/03/03 09:11:21;;;;;;;7.00;4.40;;;;;;;6.49;53.97;100009.31;105697;1259;60565;-77
2024/03/03 09:13:48;;;;;;;8.30;5.00;;;;;;;6.51;54.13;100014.27;105366;1262;60432;-76
2024/03/03 09:16:16;;;;;;;8.90;4.90;;;;;;;6.56;54.27;100014.19;105498;1262;72609;-76
2024/03/03 09:18:49;;;;;;;7.40;4.80;;;;;;;6.63;54.23;100018.84;105719;1261;70776;-76
2024/03/03 09:21:17;;;;;;;6.60;4.70;;;;;;;6.68;53.85;100013.94;106035;1258;74879;-75
2024/03/03 09:23:44;;;;;;;7.50;4.70;;;;;;;6.74;53.87;100010.25;106138;1256;61242;-76
2024/03/03 09:26:11;;;;;;;5.80;5.00;;;;;;;6.86;53.72;100011.48;106466;1254;60522;-75
2024/03/03 09:28:42;;;;;;;7.20;4.90;;;;;;;6.99;53.79;100012.61;106117;1258;74992;-73
2024/03/03 09:31:10;;;;;;;10.70;4.90;;;;;;;7.11;53.46;100016.48;105709;1254;72680;-73
2024/03/03 09:33:38;;;;;;;9.00;4.30;;;;;;;7.17;52.59;100018.64;105519;1260;75252;-77
2024/03/03 09:36:07;;;;;;;9.50;4.80;;;;;;;7.16;52.45;100013.92;105794;1257;60517;-75
2024/03/03 09:38:34;;;;;;;9.40;4.80;;;;;;;7.19;52.34;100013.95;105780;1254;60505;-75
2024/03/03 09:41:02;;;;;;;11.20;5.10;;;;;;;7.27;52.32;100015.36;105893;1256;74235;-77
2024/03/03 09:43:36;;;;;;;10.90;4.70;;;;;;;7.35;51.97;100011.49;105909;1260;72161;-75
2024/03/03 09:46:04;;;;;;;7.60;4.70;;;;;;;7.41;51.76;100007.23;105638;1258;72640;-72
2024/03/03 09:48:35;;;;;;;8.30;5.40;;;;;;;7.47;51.66;100004.38;106823;1259;60622;-74
2024/03/03 09:51:03;;;;;;;6.70;4.80;;;;;;;7.57;51.43;100004.17;107327;1254;60520;-73
2024/03/03 09:53:31;;;;;;;7.80;4.70;;;;;;;7.63;51.16;100005.32;108427;1255;73727;-76
2024/03/03 09:55:58;;;;;;;10.30;4.80;;;;;;;7.70;51.26;100002.23;107232;1261;70566;-75
2024/03/03 09:58:26;;;;;;;8.00;4.50;;;;;;;7.87;50.86;100003.13;105968;1256;71501;-75
2024/03/03 10:00:53;;;;;;;5.90;5.10;;;;;;;8.02;50.41;99998.91;106152;1259;60513;-76
2024/03/03 10:03:21;;;;;;;11.40;5.80;;;;;;;8.09;50.04;100002.48;106007;1254;60483;-76
2024/03/03 10:05:49;;;;;;;8.30;5.20;;;;;;;8.18;49.84;100002.46;105854;1255;73863;-75
2024/03/03 10:08:18;;;;;;;7.00;5.00;;;;;;;8.27;49.70;99999.89;105855;1259;70545;-75
2024/03/03 10:10:46;;;;;;;8.20;5.30;;;;;;;8.33;49.37;99996.13;105912;1256;72759;-73
2024/03/03 10:13:15;;;;;;;7.40;4.40;;;;;;;8.41;49.46;99996.02;105830;1260;60493;-76
2024/03/03 10:15:45;;;;;;;11.00;4.60;;;;;;;8.53;48.86;99995.27;105885;1268;60414;-75
2024/03/03 10:18:12;;;;;;;7.70;4.70;;;;;;;8.54;48.69;99995.08;105909;1259;72912;-77
2024/03/03 10:20:40;;;;;;;7.50;4.60;;;;;;;8.46;48.80;99995.41;106000;1260;69902;-76
2024/03/03 10:23:31;;;;;;;8.20;4.80;;;;;;;8.49;49.08;99993.20;106098;1259;71770;-78
2024/03/03 10:25:58;;;;;;;7.30;4.20;;;;;;;8.70;48.79;99985.11;105884;1257;60521;-73
2024/03/03 10:28:26;;;;;;;8.60;4.60;;;;;;;8.85;48.41;99991.29;106811;1260;60453;-76
2024/03/03 10:31:09;;;;;;;10.70;5.10;;;;;;;9.02;48.21;99989.66;105857;1255;76329;-77
2024/03/03 10:33:37;;;;;;;;;;;;;;;9.28;48.09;99983.02;105836;1259;72286;-76
2024/03/03 10:36:08;;;;;;;7.70;4.00;;;;;;;9.66;47.60;99983.74;105452;1255;73696;-76
2024/03/03 10:38:39;;;;;;;7.80;4.70;;;;;;;10.12;46.95;99977.10;105831;1256;60541;-77
2024/03/03 10:41:07;;;;;;;7.00;4.70;;;;;;;10.57;45.99;99972.63;105887;1259;60361;-77
2024/03/03 10:43:35;;;;;;;6.20;4.60;;;;;;;10.89;44.98;99980.77;106211;1254;72793;-77
2024/03/03 10:46:02;;;;;;;10.20;5.00;;;;;;;11.11;44.22;99980.52;107901;1254;72545;-75
2024/03/03 10:48:30;;;;;;;9.40;4.60;;;;;;;11.23;44.20;99978.11;108736;1254;73642;-74
2024/03/03 10:50:57;;;;;;;7.20;4.50;;;;;;;11.34;43.66;99981.34;106157;1258;61027;-75
2024/03/03 10:53:26;;;;;;;9.30;4.20;;;;;;;11.43;43.59;99977.25;105941;1259;60300;-78
2024/03/03 10:55:58;;;;;;;9.90;5.70;;;;;;;11.51;43.04;99968.39;105636;1259;72426;-76
2024/03/03 10:58:26;;;;;;;10.00;5.00;;;;;;;11.67;43.70;99970.69;106028;1260;72405;-77
2024/03/03 11:00:53;;;;;;;7.90;4.70;;;;;;;12.10;42.84;99964.63;106819;1260;73958;-77
2024/03/03 11:03:21;;;;;;;11.60;5.30;;;;;;;12.39;42.23;99961.38;105662;1257;60518;-77
2024/03/03 11:05:50;;;;;;;11.50;5.20;;;;;;;12.66;42.00;99962.59;105703;1259;60842;-76
2024/03/03 11:08:18;;;;;;;12.10;5.10;;;;;;;12.81;41.20;99959.33;105770;1259;74073;-76
2024/03/03 11:10:45;;;;;;;8.50;4.60;;;;;;;12.78;40.96;99954.52;105791;1259;70835;-74
2024/03/03 11:13:13;;;;;;;8.00;4.50;;;;;;;12.62;41.29;99952.88;105782;1260;74169;-77
2024/03/03 11:15:40;;;;;;;13.20;4.90;;;;;;;12.51;41.05;99957.67;105676;1255;60354;-79
2024/03/03 11:18:11;;;;;;;8.10;4.60;;;;;;;12.29;41.33;99950.77;105693;1260;60492;-81
2024/03/03 11:20:39;;;;;;;7.80;5.00;;;;;;;12.02;41.70;99955.31;105962;1258;76032;-77
2024/03/03 11:23:35;;;;;;;12.00;5.50;;;;;;;11.74;42.11;99956.96;105682;1256;70535;-78
2024/03/03 11:26:20;;;;;;;11.80;5.60;;;;;;;11.25;42.35;99958.41;105659;1261;72818;-77
2024/03/03 11:28:49;;;;;;;7.70;5.40;;;;;;;10.67;43.46;99954.92;105440;1259;62392;-74
2024/03/03 11:31:16;;;;;;;9.40;5.60;;;;;;;10.20;43.95;99957.50;105738;1260;60462;-75